Cape Express — HO5337 — position and weather

sailwx.info

Track history (hours):
 
Tides and Currents Weather Stations Pressure Air Temp Water Temp Dewpoint Dewpoint Depression Visibility Wind Speed Wind Dir Waves Ship Positions

Cape Express

Last reported at 2016-Aug-27 18:33 UTC. Time now 2016-Aug-27 18:45 UTC.
Position N 25°55' W 079°44'.

Length 29 m; draft 12.2 m.

Type: Cargo ship. MMSI: 370269000.

Date/timePositionNaut miles runAvg speedWind from/ knotsBaromVisibWave heightAir tempDewpointWater temp
2016-Aug-27 18:33N 25°55' W 079°44'7 0.7
2016-Aug-27 08:18N 25°52' W 079°37'6 7.7
2016-Aug-27 07:34N 25°54' W 079°43'7 6.8
2016-Aug-27 06:34N 25°57' W 079°49'16 7.8
2016-Aug-27 04:33N 26°05' W 080°05'3 3.1
2016-Aug-27 03:33N 26°04' W 080°08'0 0.0
2016-Aug-27 02:33N 26°04' W 080°08'0 0.0
2016-Aug-27 01:33N 26°04' W 080°08'1 0.6
2016-Aug-27 00:33N 26°04' W 080°07'7 7.3
2016-Aug-26 23:33N 26°07' W 079°60'9 8.7
2016-Aug-26 22:33N 26°10' W 079°51'9 8.8
2016-Aug-26 21:34N 26°12' W 079°41'10 9.8
2016-Aug-26 20:33N 26°14' W 079°30'3 0.2
2016-Aug-26 07:08N 26°16' W 079°32'5 9.4
2016-Aug-26 06:33N 26°14' W 079°37'18 9.1
2016-Aug-26 04:33N 26°08' W 079°56'9 9.0
2016-Aug-26 03:33N 26°06' W 080°06'3 2.6
2016-Aug-26 02:33N 26°04' W 080°08'0 0.0
2016-Aug-26 01:33N 26°04' W 080°08'0 0.1
2016-Aug-26 00:33N 26°04' W 080°08'6 5.7
2016-Aug-25 23:33N 26°06' W 080°02'9 8.7
2016-Aug-25 22:33N 26°09' W 079°53'8 8.2
2016-Aug-25 21:33N 26°12' W 079°45'8 8.4
2016-Aug-25 20:33N 26°15' W 079°36'1 0.1
2016-Aug-25 06:33N 26°15' W 079°35'17 8.7
2016-Aug-25 04:33N 26°09' W 079°53'9 8.9
2016-Aug-25 03:34N 26°06' W 080°02'6 5.6
2016-Aug-25 02:33N 26°04' W 080°08'0 0.1
2016-Aug-25 01:33N 26°04' W 080°08'0 0.0
2016-Aug-25 00:33N 26°04' W 080°08'0 0.0
2016-Aug-24 23:33N 26°04' W 080°08'0 0.0
2016-Aug-24 22:33N 26°04' W 080°08'1 0.5
2016-Aug-24 21:33N 26°04' W 080°07'7 7.2
2016-Aug-24 20:33N 26°07' W 080°00'9 9.1
2016-Aug-24 19:33N 26°10' W 079°50'8 8.4
2016-Aug-24 18:33N 26°13' W 079°42'2 0.1
2016-Aug-24 04:33N 26°12' W 079°44'9 9.4
2016-Aug-24 03:33N 26°09' W 079°54'9 9.3
2016-Aug-24 02:33N 26°06' W 080°03'5 4.6
2016-Aug-24 01:33N 26°04' W 080°08'0 0.0
2016-Aug-24 00:34N 26°04' W 080°08'0 0.0
2016-Aug-23 23:33N 26°04' W 080°08'0 0.0
2016-Aug-23 22:33N 26°04' W 080°08'0 0.0
2016-Aug-23 21:33N 26°04' W 080°08'6 5.6
2016-Aug-23 20:33N 26°06' W 080°02'9 9.0
2016-Aug-23 19:33N 26°09' W 079°53'9 8.8
2016-Aug-23 18:33N 26°12' W 079°44'13 0.9
2016-Aug-23 04:10N 26°17' W 079°30'6 9.8
2016-Aug-23 03:33N 26°15' W 079°37'10 9.8
2016-Aug-23 02:33N 26°11' W 079°47'10 9.8
2016-Aug-23 01:33N 26°08' W 079°57'9 9.2
2016-Aug-23 00:33N 26°05' W 080°07'2 2.0
2016-Aug-22 23:33N 26°04' W 080°08'0 0.0
2016-Aug-22 22:33N 26°04' W 080°08'0 0.0
2016-Aug-22 21:33N 26°04' W 080°08'0 0.0
2016-Aug-22 20:33N 26°04' W 080°08'0 0.0
2016-Aug-22 19:33N 26°04' W 080°08'0 0.0
2016-Aug-22 18:33N 26°04' W 080°08'0 0.0
2016-Aug-22 17:34N 26°04' W 080°08'0 0.0
2016-Aug-22 16:33N 26°04' W 080°08'0 0.0
2016-Aug-22 15:33N 26°04' W 080°08'0 0.0
2016-Aug-22 14:33N 26°04' W 080°08'0 0.0
2016-Aug-22 13:33N 26°04' W 080°08'0 0.0
2016-Aug-22 12:33N 26°04' W 080°08'0 0.0
2016-Aug-22 11:33N 26°04' W 080°08'0 0.0
2016-Aug-22 10:33N 26°04' W 080°08'0 0.0
2016-Aug-22 09:33N 26°04' W 080°08'0 0.0
2016-Aug-22 08:33N 26°04' W 080°08'0 0.0
2016-Aug-22 07:34N 26°04' W 080°08'0 0.0
2016-Aug-22 06:33N 26°04' W 080°08'0 0.0
2016-Aug-22 05:33N 26°04' W 080°08'0 0.0
2016-Aug-22 04:33N 26°04' W 080°08'0 0.0
2016-Aug-22 03:33N 26°04' W 080°08'0 0.0
2016-Aug-22 02:33N 26°04' W 080°08'0 0.0
2016-Aug-22 01:33N 26°04' W 080°08'0 0.0
2016-Aug-22 00:33N 26°04' W 080°08'0 0.0
2016-Aug-21 23:33N 26°04' W 080°08'0 0.0
2016-Aug-21 22:33N 26°04' W 080°08'0 0.0
2016-Aug-21 21:34N 26°04' W 080°08'0 0.0
2016-Aug-21 20:33N 26°04' W 080°08'0 0.0
2016-Aug-21 19:33N 26°04' W 080°08'0 0.0
2016-Aug-21 18:34N 26°04' W 080°08'0 0.0
2016-Aug-21 17:33N 26°04' W 080°08'0 0.0
2016-Aug-21 16:33N 26°04' W 080°08'0 0.0
2016-Aug-21 15:34N 26°04' W 080°08'0 0.0
2016-Aug-21 14:33N 26°04' W 080°08'0 0.0
2016-Aug-21 13:33N 26°04' W 080°08'0 0.0
2016-Aug-21 12:33N 26°04' W 080°08'0 0.0
2016-Aug-21 11:33N 26°04' W 080°08'0 0.0
2016-Aug-21 10:33N 26°04' W 080°08'0 0.0
2016-Aug-21 09:34N 26°04' W 080°08'0 0.0
2016-Aug-21 08:33N 26°04' W 080°08'0 0.0
2016-Aug-21 07:33N 26°04' W 080°08'0 0.0
2016-Aug-21 06:33N 26°04' W 080°08'0 0.0
2016-Aug-21 05:33N 26°04' W 080°08'0 0.0
2016-Aug-21 04:33N 26°04' W 080°08'0 0.0
2016-Aug-21 03:33N 26°04' W 080°08'0 0.0
2016-Aug-21 02:33N 26°04' W 080°08'0 0.0
2016-Aug-21 01:33N 26°04' W 080°08'0 0.0
2016-Aug-21 00:33N 26°04' W 080°08'0 0.0
2016-Aug-20 23:33N 26°04' W 080°08'0 0.0
2016-Aug-20 22:33N 26°04' W 080°08'0 0.0
2016-Aug-20 21:34N 26°04' W 080°08'2 2.1
2016-Aug-20 20:33N 26°05' W 080°07'1010.1
2016-Aug-20 19:33N 26°04' W 079°56'1110.7
2016-Aug-20 18:33N 26°00' W 079°44'11 0.3
2016-Aug-19 01:29N 26°05' W 079°33'9 9.6
2016-Aug-19 00:33N 26°05' W 079°43'9 9.2
2016-Aug-18 23:33N 26°05' W 079°54'9 9.3
2016-Aug-18 22:33N 26°05' W 080°04'4 4.0
2016-Aug-18 21:33N 26°04' W 080°08'0 0.0
2016-Aug-18 20:33N 26°04' W 080°08'0 0.0
2016-Aug-18 19:33N 26°04' W 080°08'0 0.5
2016-Aug-18 18:33N 26°04' W 080°07'7 7.5
2016-Aug-18 17:34N 26°04' W 079°59'1110.9
2016-Aug-18 16:33N 26°01' W 079°47'1110.6
2016-Aug-18 15:33N 25°57' W 079°36'  
Track history (hours):
 
Tides and Currents Weather Stations Pressure Air Temp Water Temp Dewpoint Dewpoint Depression Visibility Wind Speed Wind Dir Waves Ship Positions

Cape Express

Last reported at 2016-Aug-27 18:33 UTC. Time now 2016-Aug-27 18:45 UTC.
Position N 25°55' W 079°44'.

Length 29 m; draft 12.2 m.

Type: Cargo ship. MMSI: 370269000.

Date/timePositionNaut miles runAvg speedWind from/ knotsBaromVisibWave heightAir tempDewpointWater temp
2016-Aug-27 18:33N 25°55' W 079°44'7 0.7
2016-Aug-27 08:18N 25°52' W 079°37'6 7.7
2016-Aug-27 07:34N 25°54' W 079°43'7 6.8
2016-Aug-27 06:34N 25°57' W 079°49'16 7.8
2016-Aug-27 04:33N 26°05' W 080°05'3 3.1
2016-Aug-27 03:33N 26°04' W 080°08'0 0.0
2016-Aug-27 02:33N 26°04' W 080°08'0 0.0
2016-Aug-27 01:33N 26°04' W 080°08'1 0.6
2016-Aug-27 00:33N 26°04' W 080°07'7 7.3
2016-Aug-26 23:33N 26°07' W 079°60'9 8.7
2016-Aug-26 22:33N 26°10' W 079°51'9 8.8
2016-Aug-26 21:34N 26°12' W 079°41'10 9.8
2016-Aug-26 20:33N 26°14' W 079°30'3 0.2
2016-Aug-26 07:08N 26°16' W 079°32'5 9.4
2016-Aug-26 06:33N 26°14' W 079°37'18 9.1
2016-Aug-26 04:33N 26°08' W 079°56'9 9.0
2016-Aug-26 03:33N 26°06' W 080°06'3 2.6
2016-Aug-26 02:33N 26°04' W 080°08'0 0.0
2016-Aug-26 01:33N 26°04' W 080°08'0 0.1
2016-Aug-26 00:33N 26°04' W 080°08'6 5.7
2016-Aug-25 23:33N 26°06' W 080°02'9 8.7
2016-Aug-25 22:33N 26°09' W 079°53'8 8.2
2016-Aug-25 21:33N 26°12' W 079°45'8 8.4
2016-Aug-25 20:33N 26°15' W 079°36'1 0.1
2016-Aug-25 06:33N 26°15' W 079°35'17 8.7
2016-Aug-25 04:33N 26°09' W 079°53'9 8.9
2016-Aug-25 03:34N 26°06' W 080°02'6 5.6
2016-Aug-25 02:33N 26°04' W 080°08'0 0.1
2016-Aug-25 01:33N 26°04' W 080°08'0 0.0
2016-Aug-25 00:33N 26°04' W 080°08'0 0.0
2016-Aug-24 23:33N 26°04' W 080°08'0 0.0
2016-Aug-24 22:33N 26°04' W 080°08'1 0.5
2016-Aug-24 21:33N 26°04' W 080°07'7 7.2
2016-Aug-24 20:33N 26°07' W 080°00'9 9.1
2016-Aug-24 19:33N 26°10' W 079°50'8 8.4
2016-Aug-24 18:33N 26°13' W 079°42'2 0.1
2016-Aug-24 04:33N 26°12' W 079°44'9 9.4
2016-Aug-24 03:33N 26°09' W 079°54'9 9.3
2016-Aug-24 02:33N 26°06' W 080°03'5 4.6
2016-Aug-24 01:33N 26°04' W 080°08'0 0.0
2016-Aug-24 00:34N 26°04' W 080°08'0 0.0
2016-Aug-23 23:33N 26°04' W 080°08'0 0.0
2016-Aug-23 22:33N 26°04' W 080°08'0 0.0
2016-Aug-23 21:33N 26°04' W 080°08'6 5.6
2016-Aug-23 20:33N 26°06' W 080°02'9 9.0
2016-Aug-23 19:33N 26°09' W 079°53'9 8.8
2016-Aug-23 18:33N 26°12' W 079°44'13 0.9
2016-Aug-23 04:10N 26°17' W 079°30'6 9.8
2016-Aug-23 03:33N 26°15' W 079°37'10 9.8
2016-Aug-23 02:33N 26°11' W 079°47'10 9.8
2016-Aug-23 01:33N 26°08' W 079°57'9 9.2
2016-Aug-23 00:33N 26°05' W 080°07'2 2.0
2016-Aug-22 23:33N 26°04' W 080°08'0 0.0
2016-Aug-22 22:33N 26°04' W 080°08'0 0.0
2016-Aug-22 21:33N 26°04' W 080°08'0 0.0
2016-Aug-22 20:33N 26°04' W 080°08'0 0.0
2016-Aug-22 19:33N 26°04' W 080°08'0 0.0
2016-Aug-22 18:33N 26°04' W 080°08'0 0.0
2016-Aug-22 17:34N 26°04' W 080°08'0 0.0
2016-Aug-22 16:33N 26°04' W 080°08'0 0.0
2016-Aug-22 15:33N 26°04' W 080°08'0 0.0
2016-Aug-22 14:33N 26°04' W 080°08'0 0.0
2016-Aug-22 13:33N 26°04' W 080°08'0 0.0
2016-Aug-22 12:33N 26°04' W 080°08'0 0.0
2016-Aug-22 11:33N 26°04' W 080°08'0 0.0
2016-Aug-22 10:33N 26°04' W 080°08'0 0.0
2016-Aug-22 09:33N 26°04' W 080°08'0 0.0
2016-Aug-22 08:33N 26°04' W 080°08'0 0.0
2016-Aug-22 07:34N 26°04' W 080°08'0 0.0
2016-Aug-22 06:33N 26°04' W 080°08'0 0.0
2016-Aug-22 05:33N 26°04' W 080°08'0 0.0
2016-Aug-22 04:33N 26°04' W 080°08'0 0.0
2016-Aug-22 03:33N 26°04' W 080°08'0 0.0
2016-Aug-22 02:33N 26°04' W 080°08'0 0.0
2016-Aug-22 01:33N 26°04' W 080°08'0 0.0
2016-Aug-22 00:33N 26°04' W 080°08'0 0.0
2016-Aug-21 23:33N 26°04' W 080°08'0 0.0
2016-Aug-21 22:33N 26°04' W 080°08'0 0.0
2016-Aug-21 21:34N 26°04' W 080°08'0 0.0
2016-Aug-21 20:33N 26°04' W 080°08'0 0.0
2016-Aug-21 19:33N 26°04' W 080°08'0 0.0
2016-Aug-21 18:34N 26°04' W 080°08'0 0.0
2016-Aug-21 17:33N 26°04' W 080°08'0 0.0
2016-Aug-21 16:33N 26°04' W 080°08'0 0.0
2016-Aug-21 15:34N 26°04' W 080°08'0 0.0
2016-Aug-21 14:33N 26°04' W 080°08'0 0.0
2016-Aug-21 13:33N 26°04' W 080°08'0 0.0
2016-Aug-21 12:33N 26°04' W 080°08'0 0.0
2016-Aug-21 11:33N 26°04' W 080°08'0 0.0
2016-Aug-21 10:33N 26°04' W 080°08'0 0.0
2016-Aug-21 09:34N 26°04' W 080°08'0 0.0
2016-Aug-21 08:33N 26°04' W 080°08'0 0.0
2016-Aug-21 07:33N 26°04' W 080°08'0 0.0
2016-Aug-21 06:33N 26°04' W 080°08'0 0.0
2016-Aug-21 05:33N 26°04' W 080°08'0 0.0
2016-Aug-21 04:33N 26°04' W 080°08'0 0.0
2016-Aug-21 03:33N 26°04' W 080°08'0 0.0
2016-Aug-21 02:33N 26°04' W 080°08'0 0.0
2016-Aug-21 01:33N 26°04' W 080°08'0 0.0
2016-Aug-21 00:33N 26°04' W 080°08'0 0.0
2016-Aug-20 23:33N 26°04' W 080°08'0 0.0
2016-Aug-20 22:33N 26°04' W 080°08'0 0.0
2016-Aug-20 21:34N 26°04' W 080°08'2 2.1
2016-Aug-20 20:33N 26°05' W 080°07'1010.1
2016-Aug-20 19:33N 26°04' W 079°56'1110.7
2016-Aug-20 18:33N 26°00' W 079°44'11 0.3
2016-Aug-19 01:29N 26°05' W 079°33'9 9.6
2016-Aug-19 00:33N 26°05' W 079°43'9 9.2
2016-Aug-18 23:33N 26°05' W 079°54'9 9.3
2016-Aug-18 22:33N 26°05' W 080°04'4 4.0
2016-Aug-18 21:33N 26°04' W 080°08'0 0.0
2016-Aug-18 20:33N 26°04' W 080°08'0 0.0
2016-Aug-18 19:33N 26°04' W 080°08'0 0.5
2016-Aug-18 18:33N 26°04' W 080°07'7 7.5
2016-Aug-18 17:34N 26°04' W 079°59'1110.9
2016-Aug-18 16:33N 26°01' W 079°47'1110.6
2016-Aug-18 15:33N 25°57' W 079°36'  

Dump ship's entire track history